Time;durP1;ratioP1;P1;durP2;ratioP2;P2;SDS_P1;SDS_P2;PMS_P1;PMS_P2;Temp;Humidity;BMP_temperature;BMP_pressure;BME280_temperature;BME280_humidity;BME280_pressure;Samples;Min_cycle;Max_cycle;Signal;HPM_P1;HPM_P2
2023/01/21 00:02:22;;;;;;;19.48;13.52;;;3.30;99.90;;;;;;5052309;28;20505;-90
2023/01/21 00:04:47;;;;;;;18.13;13.52;;;3.50;99.90;;;;;;5051052;28;20056;-90
2023/01/21 00:07:13;;;;;;;21.00;16.05;;;3.30;99.90;;;;;;5052443;28;20048;-89
2023/01/21 00:09:39;;;;;;;22.10;15.55;;;3.30;99.90;;;;;;5053296;28;20127;-89
2023/01/21 00:12:04;;;;;;;23.65;16.58;;;3.30;99.90;;;;;;5053063;28;20055;-89
2023/01/21 00:14:31;;;;;;;20.77;14.95;;;3.20;99.90;;;;;;5052401;28;20040;-90
2023/01/21 00:16:57;;;;;;;32.65;23.20;;;3.30;99.90;;;;;;5052530;28;20033;-90
2023/01/21 00:19:26;;;;;;;20.77;15.13;;;3.30;99.90;;;;;;5052783;28;20036;-90
2023/01/21 00:21:52;;;;;;;19.30;15.32;;;3.30;99.90;;;;;;5051256;28;20045;-90
2023/01/21 00:24:17;;;;;;;23.15;17.08;;;3.10;99.90;;;;;;5050215;28;20091;-89
2023/01/21 00:26:43;;;;;;;20.35;15.32;;;3.30;99.90;;;;;;5051871;28;20036;-90
2023/01/21 00:29:11;;;;;;;20.33;15.10;;;3.30;99.90;;;;;;5051888;28;20112;-90
2023/01/21 00:31:37;;;;;;;18.40;13.63;;;3.20;99.90;;;;;;5052948;28;20107;-90
2023/01/21 00:34:03;;;;;;;19.27;14.07;;;3.40;99.90;;;;;;5035600;28;20412;-89
2023/01/21 00:36:29;;;;;;;22.40;14.73;;;3.30;99.90;;;;;;5034983;28;20044;-90
2023/01/21 00:38:58;;;;;;;20.10;14.23;;;3.30;99.90;;;;;;5052587;28;20541;-90
2023/01/21 00:41:25;;;;;;;19.73;14.82;;;3.50;99.90;;;;;;5052811;28;20048;-90
2023/01/21 00:43:51;;;;;;;21.85;13.82;;;3.40;99.90;;;;;;5052861;28;20025;-90
2023/01/21 00:46:16;;;;;;;18.13;14.10;;;3.40;99.90;;;;;;5058060;28;20029;-90
2023/01/21 00:48:42;;;;;;;17.95;13.63;;;3.30;99.90;;;;;;5059503;28;20040;-91
2023/01/21 00:51:08;;;;;;;18.63;14.05;;;3.10;99.90;;;;;;5059734;28;20032;-89
2023/01/21 00:53:37;;;;;;;19.95;14.20;;;3.40;99.90;;;;;;5058716;28;20071;-90
2023/01/21 00:56:05;;;;;;;21.88;14.63;;;3.10;99.90;;;;;;5058583;28;20079;-90
2023/01/21 00:58:31;;;;;;;19.75;14.50;;;3.10;99.90;;;;;;5059145;28;20025;-89
2023/01/21 01:01:09;;;;;;;18.65;14.38;;;3.10;99.90;;;;;;5041338;28;20097;-89
2023/01/21 01:03:35;;;;;;;19.40;14.57;;;3.20;99.90;;;;;;5046729;28;20029;-89
2023/01/21 01:06:02;;;;;;;22.40;14.85;;;3.10;99.90;;;;;;5058813;28;20035;-90
2023/01/21 01:08:28;;;;;;;20.73;15.32;;;3.10;99.90;;;;;;5058689;28;20107;-89
2023/01/21 01:10:53;;;;;;;22.88;16.13;;;2.90;99.90;;;;;;5058982;28;20481;-90
2023/01/21 01:13:19;;;;;;;23.67;16.50;;;3.30;99.90;;;;;;5058375;28;20067;-90
2023/01/21 01:15:46;;;;;;;22.85;16.60;;;3.00;99.90;;;;;;5041365;28;20119;-89
2023/01/21 01:18:11;;;;;;;21.80;15.68;;;3.30;99.90;;;;;;5058690;28;20044;-89
2023/01/21 01:20:41;;;;;;;23.40;16.90;;;3.20;99.90;;;;;;5058830;28;20444;-89
2023/01/21 01:23:07;;;;;;;26.17;19.17;;;3.00;99.90;;;;;;5058486;28;20177;-89
2023/01/21 01:25:33;;;;;;;28.08;19.88;;;3.20;99.90;;;;;;5058797;28;20083;-89
2023/01/21 01:27:59;;;;;;;23.02;16.88;;;3.30;99.90;;;;;;5058517;28;20037;-89
2023/01/21 01:30:25;;;;;;;25.67;16.50;;;3.30;99.90;;;;;;5058065;28;20040;-88
2023/01/21 01:32:50;;;;;;;20.00;14.77;;;3.20;99.90;;;;;;5058890;28;20194;-89
2023/01/21 01:35:16;;;;;;;22.38;16.10;;;3.30;99.90;;;;;;5058123;28;20029;-90
2023/01/21 01:37:41;;;;;;;21.73;15.55;;;3.20;99.90;;;;;;5059526;28;20485;-90
2023/01/21 01:40:09;;;;;;;20.33;14.88;;;3.30;99.90;;;;;;5058724;28;20052;-89
2023/01/21 01:42:35;;;;;;;20.63;14.68;;;3.20;99.90;;;;;;5059205;28;20037;-89
2023/01/21 01:45:04;;;;;;;22.13;15.40;;;3.40;99.90;;;;;;5058755;28;20029;-89
2023/01/21 01:47:44;;;;;;;20.08;14.48;;;3.10;99.90;;;;;;5058728;28;20451;-89
2023/01/21 01:50:13;;;;;;;19.20;14.70;;;3.20;99.90;;;;;;5056472;28;20036;-90
2023/01/21 01:52:41;;;;;;;18.52;14.10;;;3.00;99.90;;;;;;5040713;28;20043;-89
2023/01/21 01:55:08;;;;;;;19.98;14.55;;;3.00;99.90;;;;;;5041359;28;20024;-88
2023/01/21 01:57:37;;;;;;;22.73;14.68;;;3.00;99.90;;;;;;5054615;28;20021;-89
2023/01/21 02:00:08;;;;;;;18.83;13.60;;;3.00;99.90;;;;;;5055182;28;20021;-89
2023/01/21 02:02:35;;;;;;;18.73;13.63;;;2.80;99.90;;;;;;5055182;28;20484;-89
2023/01/21 02:05:05;;;;;;;17.38;12.90;;;3.10;99.90;;;;;;5038273;28;20029;-89
2023/01/21 02:07:38;;;;;;;17.20;13.25;;;2.90;99.90;;;;;;5054755;28;20029;-89
2023/01/21 02:10:09;;;;;;;18.13;13.88;;;2.80;99.90;;;;;;5055023;28;20082;-89
2023/01/21 02:12:37;;;;;;;19.60;13.60;;;2.80;99.90;;;;;;5048231;28;20497;-89
2023/01/21 02:15:04;;;;;;;18.10;13.73;;;3.20;99.90;;;;;;5037848;28;20040;-89
2023/01/21 02:17:54;;;;;;;19.73;13.02;;;3.00;99.90;;;;;;5054554;28;20061;-89
2023/01/21 02:20:49;;;;;;;17.52;12.18;;;3.00;99.90;;;;;;5054118;28;20068;-89
2023/01/21 02:23:45;;;;;;;16.70;12.57;;;3.10;99.90;;;;;;5054750;28;20075;-89
2023/01/21 02:26:16;;;;;;;16.48;11.93;;;3.10;99.90;;;;;;5053661;28;20041;-89
2023/01/21 02:29:13;;;;;;;18.30;13.10;;;3.20;99.90;;;;;;5042165;28;20047;-88
2023/01/21 02:31:44;;;;;;;19.15;13.35;;;3.10;99.90;;;;;;5055070;28;20082;-89
2023/01/21 02:34:31;;;;;;;19.00;13.25;;;3.10;99.90;;;;;;5055103;28;20098;-89
2023/01/21 02:37:08;;;;;;;18.23;13.23;;;3.00;99.90;;;;;;5041183;28;20025;-89
2023/01/21 02:40:09;;;;;;;16.15;12.43;;;2.90;99.90;;;;;;5054822;28;20508;-89
2023/01/21 02:42:49;;;;;;;18.73;12.88;;;3.00;99.90;;;;;;5038092;28;20523;-89
2023/01/21 02:45:15;;;;;;;17.02;12.48;;;3.00;99.90;;;;;;5054456;28;20450;-89
2023/01/21 02:48:05;;;;;;;17.38;12.93;;;3.10;99.90;;;;;;5054605;28;20122;-89
2023/01/21 02:50:40;;;;;;;18.00;12.73;;;3.10;99.90;;;;;;5055243;28;20481;-89
2023/01/21 02:53:06;;;;;;;21.52;13.82;;;3.20;99.90;;;;;;5046340;28;20033;-89
2023/01/21 02:55:35;;;;;;;17.75;12.98;;;3.10;99.90;;;;;;5036596;28;20021;-88
2023/01/21 02:58:06;;;;;;;18.55;13.88;;;3.10;99.90;;;;;;5054134;28;20473;-89
2023/01/21 03:01:10;;;;;;;15.93;12.82;;;3.10;99.90;;;;;;5042173;28;20033;-89
2023/01/21 03:03:46;;;;;;;19.40;14.10;;;3.10;99.90;;;;;;5054491;28;20111;-89
2023/01/21 03:06:17;;;;;;;20.05;14.25;;;3.10;99.90;;;;;;5053941;28;20040;-88
2023/01/21 03:08:58;;;;;;;18.95;14.60;;;3.10;99.90;;;;;;5054128;28;20039;-89
2023/01/21 03:11:24;;;;;;;22.10;15.15;;;3.40;99.90;;;;;;5053781;28;20036;-88
2023/01/21 03:16:57;;;;;;;18.45;14.38;;;3.10;99.90;;;;;;5054027;28;20555;-88
2023/01/21 03:19:31;;;;;;;19.13;13.43;;;3.10;99.90;;;;;;5053933;28;20040;-89
2023/01/21 03:22:00;;;;;;;22.50;14.77;;;2.80;99.90;;;;;;5054385;28;20036;-88
2023/01/21 03:24:27;;;;;;;19.25;14.23;;;2.80;99.90;;;;;;5053465;28;20053;-88
2023/01/21 03:26:56;;;;;;;19.13;14.40;;;3.30;99.90;;;;;;5053874;28;20047;-89
2023/01/21 03:29:25;;;;;;;18.60;13.93;;;3.00;99.90;;;;;;5053535;28;20393;-89
2023/01/21 03:31:55;;;;;;;18.23;13.98;;;3.00;99.90;;;;;;5053521;28;20035;-89
2023/01/21 03:34:24;;;;;;;21.20;15.20;;;3.00;99.90;;;;;;5053675;28;20068;-89
2023/01/21 03:37:14;;;;;;;19.05;13.85;;;3.20;99.90;;;;;;5052792;28;20064;-88
2023/01/21 03:40:20;;;;;;;20.70;14.85;;;2.80;99.90;;;;;;5053533;28;20031;-88
2023/01/21 03:42:49;;;;;;;20.55;14.57;;;2.70;99.90;;;;;;5053488;28;20065;-88
2023/01/21 03:45:17;;;;;;;19.02;13.90;;;2.90;99.90;;;;;;5036570;28;20487;-89
2023/01/21 03:47:51;;;;;;;17.92;13.52;;;3.30;99.90;;;;;;5053254;28;20486;-88
2023/01/21 03:50:22;;;;;;;20.92;14.25;;;3.10;99.90;;;;;;5053674;28;20040;-89
2023/01/21 03:52:48;;;;;;;19.92;14.25;;;3.10;99.90;;;;;;5053194;28;20025;-89
2023/01/21 03:55:15;;;;;;;16.73;12.68;;;3.30;99.90;;;;;;5053547;28;20037;-88
2023/01/21 03:57:41;;;;;;;18.55;12.70;;;3.30;99.90;;;;;;5053001;28;20024;-88
2023/01/21 04:00:08;;;;;;;17.20;12.90;;;3.30;99.90;;;;;;5053389;28;20385;-89
2023/01/21 04:02:34;;;;;;;17.73;12.70;;;3.10;99.90;;;;;;5052766;28;20025;-89
2023/01/21 04:04:59;;;;;;;19.55;13.50;;;3.00;99.90;;;;;;5053026;28;20021;-89
2023/01/21 04:07:25;;;;;;;17.85;12.70;;;3.00;99.90;;;;;;5053182;28;20079;-89
2023/01/21 04:09:51;;;;;;;18.90;13.35;;;2.90;99.90;;;;;;5052986;28;20028;-89
2023/01/21 04:12:16;;;;;;;18.50;12.98;;;3.00;99.90;;;;;;5052885;28;20028;-88
2023/01/21 04:14:42;;;;;;;20.02;14.02;;;3.10;99.90;;;;;;5052691;28;20037;-88
2023/01/21 04:17:08;;;;;;;17.10;13.00;;;3.20;99.90;;;;;;5052804;28;20056;-88
2023/01/21 04:19:34;;;;;;;20.27;13.63;;;3.00;99.90;;;;;;5051863;28;20485;-88
2023/01/21 04:22:00;;;;;;;21.13;13.45;;;3.20;99.90;;;;;;5052582;28;20040;-89
2023/01/21 04:24:25;;;;;;;19.63;14.00;;;3.00;99.90;;;;;;5051395;28;20064;-88
2023/01/21 04:26:51;;;;;;;19.83;15.05;;;3.10;99.90;;;;;;5052708;28;20029;-89
2023/01/21 04:29:17;;;;;;;21.55;15.45;;;3.20;99.90;;;;;;5046196;28;20036;-89
2023/01/21 04:31:43;;;;;;;18.38;13.65;;;3.20;99.90;;;;;;5052010;28;20037;-89
2023/01/21 04:34:09;;;;;;;19.73;14.88;;;3.10;99.90;;;;;;5052842;28;20627;-88
2023/01/21 04:36:35;;;;;;;19.48;14.05;;;3.10;99.90;;;;;;5052810;28;20140;-88
2023/01/21 04:39:01;;;;;;;19.55;14.13;;;3.10;99.90;;;;;;5052333;28;20048;-89
2023/01/21 04:41:26;;;;;;;17.63;12.88;;;3.00;99.90;;;;;;5052392;28;20118;-89
2023/01/21 04:43:52;;;;;;;15.13;11.65;;;2.80;99.90;;;;;;5051802;28;20549;-88
2023/01/21 04:46:17;;;;;;;16.15;11.95;;;3.10;99.90;;;;;;5052306;28;20028;-89
2023/01/21 04:48:43;;;;;;;17.05;12.05;;;3.00;99.90;;;;;;5052744;28;20021;-89
2023/01/21 04:51:09;;;;;;;13.85;11.07;;;3.20;99.90;;;;;;5049168;28;20029;-89
2023/01/21 04:53:34;;;;;;;14.60;11.35;;;3.00;99.90;;;;;;5052247;28;20075;-89
2023/01/21 04:56:00;;;;;;;18.02;11.80;;;2.80;99.90;;;;;;5035159;28;20082;-89
2023/01/21 04:58:26;;;;;;;16.45;12.57;;;2.90;99.90;;;;;;5051854;28;20044;-88
2023/01/21 05:00:53;;;;;;;19.77;13.65;;;2.60;99.90;;;;;;5051727;28;20041;-88
2023/01/21 05:03:19;;;;;;;19.30;14.90;;;2.60;99.90;;;;;;5053105;28;20028;-89
2023/01/21 05:05:45;;;;;;;21.50;15.18;;;2.60;99.90;;;;;;5051983;28;20029;-89
2023/01/21 05:08:10;;;;;;;22.85;16.08;;;2.60;99.90;;;;;;5041258;28;20456;-88
2023/01/21 05:10:36;;;;;;;23.35;16.17;;;2.60;99.90;;;;;;5051992;28;20029;-88
2023/01/21 05:13:02;;;;;;;22.58;15.75;;;2.60;99.90;;;;;;5052045;28;20090;-89
2023/01/21 05:15:27;;;;;;;22.55;16.83;;;2.50;99.90;;;;;;5052434;28;20040;-89
2023/01/21 05:17:53;;;;;;;23.85;17.42;;;2.70;99.90;;;;;;5052245;28;20498;-89
2023/01/21 05:20:19;;;;;;;21.33;16.60;;;2.80;99.90;;;;;;5052286;28;20025;-89
2023/01/21 05:22:46;;;;;;;24.73;17.45;;;2.70;99.90;;;;;;5048006;28;20508;-89
2023/01/21 05:25:12;;;;;;;24.67;17.92;;;2.70;99.90;;;;;;5051779;28;20063;-89
2023/01/21 05:27:38;;;;;;;24.83;18.73;;;2.70;99.90;;;;;;5050423;28;20489;-91
2023/01/21 05:30:04;;;;;;;25.25;18.20;;;2.90;99.90;;;;;;5052016;28;20025;-91
2023/01/21 05:32:30;;;;;;;23.17;15.90;;;2.80;99.90;;;;;;5054561;28;20027;-91
2023/01/21 05:34:55;;;;;;;21.85;15.80;;;2.80;99.90;;;;;;5056112;28;20108;-91
2023/01/21 05:37:21;;;;;;;18.95;13.90;;;2.70;99.90;;;;;;5055816;28;20477;-91
2023/01/21 05:39:47;;;;;;;17.17;12.18;;;2.80;99.90;;;;;;5055650;28;20025;-91
2023/01/21 05:42:12;;;;;;;15.18;11.70;;;3.00;99.90;;;;;;5055555;28;20037;-91
2023/01/21 05:44:38;;;;;;;14.32;10.35;;;3.20;99.90;;;;;;5056292;28;20057;-90
2023/01/21 05:47:03;;;;;;;15.20;11.65;;;2.90;99.90;;;;;;5055358;28;20031;-90
2023/01/21 05:49:29;;;;;;;13.70;9.75;;;2.70;99.90;;;;;;5055132;28;20028;-91
2023/01/21 05:51:55;;;;;;;14.88;9.75;;;2.90;99.90;;;;;;5044145;28;20106;-91
2023/01/21 05:54:20;;;;;;;14.25;9.73;;;2.70;99.90;;;;;;5054884;28;20025;-90
2023/01/21 05:56:46;;;;;;;12.75;8.85;;;2.90;99.90;;;;;;5053695;28;20029;-90
2023/01/21 05:59:11;;;;;;;11.30;9.52;;;2.60;99.90;;;;;;5038715;28;20517;-91
2023/01/21 06:01:37;;;;;;;13.95;9.40;;;2.70;99.90;;;;;;5048912;28;20094;-91
2023/01/21 06:04:03;;;;;;;13.85;9.27;;;2.80;99.90;;;;;;5054954;28;20408;-91
2023/01/21 06:06:28;;;;;;;11.43;9.30;;;2.60;99.90;;;;;;5055474;28;20037;-90
2023/01/21 06:08:54;;;;;;;12.65;8.55;;;2.60;99.90;;;;;;5055095;28;20040;-90
2023/01/21 06:11:19;;;;;;;12.15;9.23;;;2.60;99.90;;;;;;5055818;28;20028;-91
2023/01/21 06:13:45;;;;;;;12.02;9.35;;;2.60;99.90;;;;;;5055250;28;20547;-90
2023/01/21 06:16:11;;;;;;;11.77;8.45;;;2.40;99.90;;;;;;5058694;28;20043;-91
2023/01/21 06:18:36;;;;;;;12.95;8.82;;;2.50;99.90;;;;;;5054869;28;20021;-91
2023/01/21 06:21:02;;;;;;;12.15;8.90;;;2.40;99.90;;;;;;5054985;28;20025;-91
2023/01/21 06:23:28;;;;;;;14.05;9.38;;;2.40;99.90;;;;;;5054420;28;20032;-91
2023/01/21 06:26:01;;;;;;;13.77;9.75;;;2.30;99.90;;;;;;5053985;28;20045;-91
2023/01/21 06:28:28;;;;;;;13.98;10.15;;;2.30;99.90;;;;;;5055021;28;20090;-92
2023/01/21 06:30:54;;;;;;;13.07;9.85;;;2.30;99.90;;;;;;5050966;28;20036;-91
2023/01/21 06:33:20;;;;;;;13.07;10.05;;;2.40;99.90;;;;;;5054678;28;20108;-91
2023/01/21 06:35:46;;;;;;;12.43;10.02;;;2.40;99.90;;;;;;5054752;28;20029;-91
2023/01/21 06:38:12;;;;;;;12.38;10.10;;;2.40;99.90;;;;;;5054516;28;20029;-91
2023/01/21 06:40:38;;;;;;;13.88;10.38;;;2.30;99.90;;;;;;5053550;28;20024;-91
2023/01/21 06:43:04;;;;;;;13.77;10.43;;;2.50;99.90;;;;;;5052574;28;20502;-91
2023/01/21 06:45:29;;;;;;;13.65;10.88;;;2.00;99.90;;;;;;5051903;28;20028;-91
2023/01/21 06:47:55;;;;;;;18.27;13.32;;;2.00;99.90;;;;;;5039633;28;20025;-91
2023/01/21 06:50:20;;;;;;;16.27;11.98;;;2.20;99.90;;;;;;5054249;28;20060;-91
2023/01/21 06:52:47;;;;;;;20.13;12.90;;;1.80;99.90;;;;;;5054216;28;20025;-90
2023/01/21 06:55:14;;;;;;;15.65;10.70;;;2.00;99.90;;;;;;5054073;28;20041;-91
2023/01/21 06:57:41;;;;;;;13.95;10.77;;;2.10;99.90;;;;;;5054404;28;20036;-91
2023/01/21 07:00:08;;;;;;;19.55;13.45;;;2.10;99.90;;;;;;5036951;28;20036;-91
2023/01/21 07:02:34;;;;;;;17.67;12.65;;;2.10;99.90;;;;;;5054543;28;20029;-91
2023/01/21 07:05:00;;;;;;;17.75;11.88;;;2.10;99.90;;;;;;5054427;28;20033;-91
2023/01/21 07:07:25;;;;;;;17.35;11.63;;;2.10;99.90;;;;;;5054178;28;20036;-91
2023/01/21 07:09:51;;;;;;;18.50;12.13;;;2.20;99.90;;;;;;5054689;28;20021;-90
2023/01/21 07:12:17;;;;;;;17.27;13.20;;;2.20;99.90;;;;;;5054042;28;20035;-90
2023/01/21 07:14:42;;;;;;;22.27;14.85;;;2.20;99.90;;;;;;5054241;28;20029;-90
2023/01/21 07:17:08;;;;;;;18.75;13.35;;;2.20;99.90;;;;;;5053740;28;20033;-91
2023/01/21 07:19:34;;;;;;;16.75;12.45;;;2.10;99.90;;;;;;5052480;28;20043;-91
2023/01/21 07:21:59;;;;;;;18.95;13.00;;;2.20;99.90;;;;;;5054001;28;20044;-90
2023/01/21 07:24:25;;;;;;;47.42;25.20;;;2.30;99.90;;;;;;5053275;28;20033;-90
2023/01/21 07:26:51;;;;;;;45.78;26.02;;;2.50;99.90;;;;;;5053415;28;20033;-90
2023/01/21 07:29:16;;;;;;;44.75;27.02;;;2.20;99.90;;;;;;5035911;28;20041;-90
2023/01/21 07:31:42;;;;;;;32.92;18.95;;;2.30;99.90;;;;;;5050201;28;20033;-91
2023/01/21 07:34:08;;;;;;;52.38;27.05;;;1.80;99.90;;;;;;5036760;28;20196;-90
2023/01/21 07:36:33;;;;;;;65.18;34.45;;;1.70;99.90;;;;;;5053870;28;20016;-90
2023/01/21 07:38:59;;;;;;;57.47;32.33;;;1.80;99.90;;;;;;5053984;28;20070;-91
2023/01/21 07:41:25;;;;;;;65.75;34.63;;;2.00;99.90;;;;;;5053255;28;20044;-90
2023/01/21 07:43:50;;;;;;;32.50;19.77;;;2.10;99.90;;;;;;5052798;28;20020;-90
2023/01/21 07:46:17;;;;;;;64.97;35.72;;;2.70;99.90;;;;;;5053210;28;20107;-90
2023/01/21 07:48:43;;;;;;;33.63;20.90;;;2.50;99.90;;;;;;5053204;28;20039;-90
2023/01/21 07:51:09;;;;;;;64.63;35.35;;;3.00;99.90;;;;;;5052767;28;20116;-91
2023/01/21 07:53:35;;;;;;;56.08;29.27;;;3.90;99.90;;;;;;5051893;28;20032;-90
2023/01/21 07:56:05;;;;;;;38.33;22.33;;;5.80;99.90;;;;;;5034748;28;20039;-91
2023/01/21 07:58:30;;;;;;;69.38;37.33;;;6.00;99.90;;;;;;5052875;28;20036;-90
2023/01/21 08:00:56;;;;;;;63.92;33.13;;;5.20;99.90;;;;;;5052472;28;20064;-91
2023/01/21 08:03:23;;;;;;;48.33;26.05;;;4.80;99.90;;;;;;5052892;28;20056;-90
2023/01/21 08:05:50;;;;;;;16.67;11.70;;;4.30;99.90;;;;;;5052460;28;20036;-90
2023/01/21 08:08:17;;;;;;;20.52;13.98;;;4.50;99.90;;;;;;5053068;28;20021;-91
2023/01/21 08:10:42;;;;;;;14.88;11.00;;;5.90;99.90;;;;;;5053058;28;20095;-90
2023/01/21 08:13:08;;;;;;;26.67;19.60;;;5.70;99.90;;;;;;5052975;28;20037;-90
2023/01/21 08:15:34;;;;;;;37.38;25.27;;;5.10;99.90;;;;;;5039231;28;20064;-90
2023/01/21 08:17:59;;;;;;;58.90;32.15;;;4.50;99.90;;;;;;5052207;28;20033;-90
2023/01/21 08:20:25;;;;;;;74.95;35.53;;;4.40;99.90;;;;;;5051984;28;20035;-93
2023/01/21 08:22:51;;;;;;;55.35;27.60;;;6.20;99.90;;;;;;5053035;28;20042;-94
2023/01/21 08:25:17;;;;;;;14.90;10.52;;;7.70;99.90;;;;;;5053502;28;20070;-94
2023/01/21 08:27:42;;;;;;;31.00;17.50;;;8.90;99.90;;;;;;5053500;28;20056;-94
2023/01/21 08:30:09;;;;;;;33.20;20.83;;;10.60;99.90;;;;;;5044730;28;20029;-94
2023/01/21 08:32:34;;;;;;;11.10;8.50;;;12.90;99.90;;;;;;5050693;28;20481;-92
2023/01/21 08:35:00;;;;;;;9.45;7.55;;;14.20;99.90;;;;;;5051864;28;20037;-92
2023/01/21 08:37:26;;;;;;;49.80;28.55;;;14.60;99.90;;;;;;5053900;28;20075;-92
2023/01/21 08:39:51;;;;;;;8.43;7.45;;;15.00;99.90;;;;;;5052823;28;20076;-92
2023/01/21 08:42:17;;;;;;;11.35;9.13;;;15.50;99.90;;;;;;5053656;28;20048;-92
2023/01/21 08:44:44;;;;;;;10.90;8.80;;;15.70;99.90;;;;;;5053073;28;20044;-92
2023/01/21 08:47:10;;;;;;;12.00;8.90;;;15.80;99.90;;;;;;5053683;28;20025;-92
2023/01/21 08:49:36;;;;;;;18.48;9.18;;;15.90;99.90;;;;;;5052937;28;20367;-92
2023/01/21 08:52:01;;;;;;;8.68;7.43;;;17.00;99.90;;;;;;5054069;28;20107;-93
2023/01/21 08:54:27;;;;;;;13.02;7.47;;;16.50;99.90;;;;;;5036430;28;20021;-93
2023/01/21 08:56:53;;;;;;;12.00;8.32;;;15.70;99.90;;;;;;5052854;28;20044;-93
2023/01/21 08:59:26;;;;;;;29.70;22.20;;;16.60;99.90;;;;;;5038186;28;20150;-94
2023/01/21 09:01:52;;;;;;;13.20;7.68;;;16.80;99.90;;;;;;5053866;28;20064;-94
2023/01/21 09:04:17;;;;;;;11.85;7.28;;;17.60;99.90;;;;;;5052608;28;20076;-93
2023/01/21 09:06:43;;;;;;;9.68;7.72;;;17.80;99.90;;;;;;5056064;28;20084;-93
2023/01/21 09:09:10;;;;;;;10.18;7.10;;;16.90;99.90;;;;;;5043000;28;20052;-92
2023/01/21 09:11:36;;;;;;;11.80;8.20;;;16.80;99.90;;;;;;5056964;28;20033;-92
2023/01/21 09:14:02;;;;;;;10.18;7.32;;;17.20;99.90;;;;;;5056183;28;20436;-92
2023/01/21 09:16:30;;;;;;;16.67;12.48;;;17.60;99.90;;;;;;5065262;28;20037;-92
2023/01/21 09:18:57;;;;;;;9.32;7.60;;;18.20;99.90;;;;;;5073426;28;20029;-93
2023/01/21 09:21:23;;;;;;;10.43;6.78;;;18.60;99.90;;;;;;5057077;28;20559;-93
2023/01/21 09:23:49;;;;;;;10.38;8.57;;;18.40;99.90;;;;;;5056754;28;20033;-92
2023/01/21 09:26:17;;;;;;;14.05;8.43;;;18.40;99.90;;;;;;5056448;28;20078;-92
2023/01/21 09:28:44;;;;;;;18.25;13.40;;;19.40;99.90;;;;;;5056564;28;20032;-93
2023/01/21 09:31:13;;;;;;;12.75;9.18;;;16.00;99.90;;;;;;5059430;28;20108;-92
2023/01/21 09:33:41;;;;;;;39.00;26.70;;;13.90;99.90;;;;;;5056509;28;20051;-92
2023/01/21 09:36:11;;;;;;;10.40;7.90;;;12.90;99.90;;;;;;5049798;28;20027;-93
2023/01/21 09:38:37;;;;;;;19.95;13.73;;;16.00;99.90;;;;;;5056586;28;20036;-92
2023/01/21 09:41:26;;;;;;;11.88;9.32;;;18.40;99.90;;;;;;5065046;28;20029;-92
2023/01/21 09:44:25;;;;;;;12.10;8.10;;;19.40;99.90;;;;;;5056867;28;20029;-92
2023/01/21 09:47:13;;;;;;;13.73;7.05;;;20.00;99.90;;;;;;5056383;28;20044;-92
2023/01/21 09:49:40;;;;;;;8.73;7.20;;;20.20;99.90;;;;;;5056605;28;20025;-92
2023/01/21 09:52:30;;;;;;;6.63;6.03;;;18.50;99.90;;;;;;5056861;28;20056;-92
2023/01/21 09:54:57;;;;;;;12.07;9.73;;;17.80;99.90;;;;;;5042845;28;20120;-93
2023/01/21 09:57:50;;;;;;;9.48;6.93;;;18.80;99.90;;;;;;5036130;28;20035;-92
2023/01/21 10:00:24;;;;;;;18.10;14.95;;;17.90;99.90;;;;;;5036421;28;20032;-92
2023/01/21 10:02:59;;;;;;;6.20;5.57;;;18.60;99.90;;;;;;5035502;28;20030;-92
2023/01/21 10:06:16;;;;;;;20.83;16.33;;;18.60;99.90;;;;;;5036180;28;20462;-92
2023/01/21 10:09:10;;;;;;;7.95;7.07;;;17.70;99.90;;;;;;4975820;28;20109;-92
2023/01/21 10:11:52;;;;;;;7.53;6.47;;;19.80;99.90;;;;;;4975753;28;20050;-92
2023/01/21 10:14:36;;;;;;;10.20;7.38;;;20.20;99.90;;;;;;4979552;28;20041;-92
2023/01/21 10:17:46;;;;;;;10.05;7.05;;;21.00;99.90;;;;;;4991163;28;20038;-93
2023/01/21 10:20:25;;;;;;;13.05;8.80;;;21.10;99.90;;;;;;4954705;29;20031;-93
2023/01/21 10:22:59;;;;;;;9.95;8.63;;;20.80;99.90;;;;;;4945581;29;20508;-92
2023/01/21 10:25:32;;;;;;;10.80;9.70;;;21.70;99.90;;;;;;4956309;28;20511;-93
2023/01/21 10:28:11;;;;;;;9.50;7.30;;;21.60;99.90;;;;;;4956551;29;20074;-92
2023/01/21 10:30:41;;;;;;;7.85;7.05;;;22.10;99.90;;;;;;4955017;29;20614;-92
2023/01/21 10:33:15;;;;;;;8.25;7.45;;;22.30;99.90;;;;;;4955529;28;20023;-92
2023/01/21 10:35:43;;;;;;;12.35;10.45;;;21.80;99.90;;;;;;4955501;29;20043;-92
2023/01/21 10:38:30;;;;;;;8.00;7.20;;;19.40;99.90;;;;;;4955658;29;20038;-92
2023/01/21 10:41:17;;;;;;;7.18;5.47;;;20.20;99.90;;;;;;4955875;28;20043;-93
2023/01/21 10:44:01;;;;;;;10.98;9.82;;;19.80;99.90;;;;;;4965530;28;20514;-93
2023/01/21 10:46:47;;;;;;;9.18;6.88;;;20.30;99.90;;;;;;4994242;28;20593;-92
2023/01/21 10:49:50;;;;;;;8.18;7.18;;;20.10;99.90;;;;;;4999940;28;20121;-93
2023/01/21 10:52:45;;;;;;;15.02;11.20;;;21.50;99.90;;;;;;4983444;28;20046;-92
2023/01/21 10:56:04;;;;;;;26.58;20.40;;;21.90;99.90;;;;;;5051942;28;20079;-92
2023/01/21 10:58:44;;;;;;;15.88;13.80;;;21.40;99.90;;;;;;4997328;28;20153;-95
2023/01/21 11:01:21;;;;;;;9.88;8.48;;;20.50;99.90;;;;;;4991120;28;20043;-95
2023/01/21 11:03:51;;;;;;;9.40;8.50;;;20.50;99.90;;;;;;4975933;28;20039;-96
2023/01/21 11:06:18;;;;;;;10.45;9.30;;;20.10;99.90;;;;;;4963976;28;20035;-95
2023/01/21 11:08:48;;;;;;;9.90;8.90;;;20.50;99.90;;;;;;5151031;23;20060;-96
2023/01/21 11:11:17;;;;;;;9.95;8.95;;;20.60;99.90;;;;;;5093403;28;20015;-96
2023/01/21 11:13:42;;;;;;;7.72;7.03;;;20.10;99.90;;;;;;5096181;28;20529;-96
2023/01/21 11:16:08;;;;;;;7.28;6.55;;;19.80;99.90;;;;;;5093051;28;20016;-96
2023/01/21 11:18:40;;;;;;;10.68;9.20;;;21.20;99.90;;;;;;5080898;28;20496;-96
2023/01/21 11:21:22;;;;;;;6.93;6.13;;;20.50;99.90;;;;;;5063052;28;20086;-96
2023/01/21 11:23:55;;;;;;;10.30;9.40;;;16.20;99.90;;;;;;5079425;28;20115;-96
2023/01/21 11:26:31;;;;;;;8.82;7.28;;;18.80;99.90;;;;;;5091538;28;20388;-96
2023/01/21 11:29:10;;;;;;;8.57;7.88;;;19.70;99.90;;;;;;5086447;28;20025;-96
2023/01/21 11:31:36;;;;;;;9.48;8.57;;;20.20;99.90;;;;;;5353144;22;20053;-84
2023/01/21 11:34:11;;;;;;;9.57;7.47;;;21.10;99.90;;;;;;5052554;28;20515;-84
2023/01/21 11:36:52;;;;;;;7.15;6.45;;;20.40;99.90;;;;;;5052645;28;20421;-84
2023/01/21 11:39:25;;;;;;;7.60;6.88;;;19.50;99.90;;;;;;5034475;28;20036;-84
2023/01/21 11:42:03;;;;;;;6.78;6.10;;;19.40;99.90;;;;;;5052540;28;20040;-86
2023/01/21 11:44:29;;;;;;;8.48;6.38;;;18.30;99.90;;;;;;5050341;28;20042;-84
2023/01/21 11:46:54;;;;;;;7.82;6.80;;;19.30;99.90;;;;;;5041320;28;20029;-84
2023/01/21 11:49:22;;;;;;;24.35;22.02;;;19.90;99.90;;;;;;5042763;28;20086;-84
2023/01/21 11:51:48;;;;;;;15.18;11.30;;;15.80;99.90;;;;;;5051648;28;20129;-84
2023/01/21 11:54:13;;;;;;;46.70;27.92;;;15.40;99.90;;;;;;5051139;28;20100;-84
2023/01/21 11:56:42;;;;;;;102.68;61.25;;;14.50;99.90;;;;;;5045155;28;20021;-83
2023/01/21 11:59:37;;;;;;;7.93;7.15;;;14.20;99.90;;;;;;5047892;28;20029;-84
2023/01/21 12:02:15;;;;;;;30.35;19.05;;;15.30;99.90;;;;;;5034838;28;20513;-84
2023/01/21 12:04:57;;;;;;;24.05;16.27;;;12.90;99.90;;;;;;5051964;28;20025;-84
2023/01/21 12:07:36;;;;;;;8.27;7.13;;;12.20;99.90;;;;;;5051420;28;20405;-84
2023/01/21 12:10:25;;;;;;;95.50;66.85;;;13.10;99.90;;;;;;5051160;28;20146;-84
2023/01/21 12:13:31;;;;;;;178.20;147.00;;;11.90;99.90;;;;;;5046146;28;20044;-83
2023/01/21 12:16:31;;;;;;;43.03;38.63;;;10.60;99.90;;;;;;4990111;28;20495;-84
2023/01/21 12:19:16;;;;;;;17.67;16.08;;;10.30;99.90;;;;;;5010082;28;20034;-84
2023/01/21 12:22:13;;;;;;;10.65;9.43;;;9.70;99.90;;;;;;5006356;28;20088;-83
2023/01/21 12:24:51;;;;;;;8.25;7.43;;;9.60;99.90;;;;;;5013929;28;20168;-84
2023/01/21 12:27:44;;;;;;;6.38;5.10;;;9.00;99.90;;;;;;5011637;28;20034;-83
2023/01/21 12:30:29;;;;;;;6.15;4.82;;;9.30;99.90;;;;;;5009620;28;20061;-84
2023/01/21 12:33:22;;;;;;;7.72;5.82;;;9.80;99.90;;;;;;5009836;28;20145;-84
2023/01/21 12:35:52;;;;;;;4.88;4.38;;;8.50;99.90;;;;;;5009746;28;20108;-84
2023/01/21 12:38:43;;;;;;;5.30;4.80;;;7.90;99.90;;;;;;5009942;28;20034;-84
2023/01/21 12:41:15;;;;;;;5.45;4.95;;;7.90;99.90;;;;;;4991776;28;20045;-84
2023/01/21 12:43:45;;;;;;;6.97;4.40;;;7.70;99.90;;;;;;4996458;28;20634;-83
2023/01/21 12:46:19;;;;;;;6.65;5.78;;;8.30;99.90;;;;;;5009542;28;20045;-84
2023/01/21 12:48:54;;;;;;;4.88;4.18;;;7.70;99.90;;;;;;5009136;28;20552;-83
2023/01/21 12:51:27;;;;;;;6.88;6.18;;;7.60;99.90;;;;;;5009969;28;20073;-84
2023/01/21 12:54:17;;;;;;;6.03;5.40;;;7.70;99.90;;;;;;5049981;28;20178;-83
2023/01/21 12:56:51;;;;;;;5.68;5.03;;;7.20;99.90;;;;;;5040349;28;20061;-83
2023/01/21 12:59:23;;;;;;;5.40;4.72;;;7.40;99.90;;;;;;5051027;28;20079;-84
2023/01/21 13:02:21;;;;;;;6.47;5.70;;;7.80;99.90;;;;;;5051275;28;20059;-83